createdAt,value
2023-03-29T00:00:52.073Z,1502.00
2023-03-29T00:02:52.048Z,1526.00
2023-03-29T00:03:52.097Z,1506.00
2023-03-29T00:04:51.933Z,1515.00
2023-03-29T00:07:51.881Z,1525.00
2023-03-29T00:09:51.850Z,1514.00
2023-03-29T00:11:51.804Z,1520.00
2023-03-29T00:13:51.770Z,1530.00
2023-03-29T00:16:51.752Z,1519.00
2023-03-29T00:17:51.736Z,1520.00
2023-03-29T00:18:51.672Z,1526.00
2023-03-29T00:19:51.667Z,1524.00
2023-03-29T00:20:51.680Z,1504.00
2023-03-29T00:22:51.622Z,1510.00
2023-03-29T00:23:51.625Z,1514.00
2023-03-29T00:24:51.570Z,1512.00
2023-03-29T00:25:51.573Z,1519.00
2023-03-29T00:29:51.468Z,1515.00
2023-03-29T00:31:51.560Z,1508.00
2023-03-29T00:33:51.395Z,1500.00
2023-03-29T00:34:51.357Z,1496.00
2023-03-29T00:35:51.424Z,1491.00
2023-03-29T00:36:51.327Z,1492.00
2023-03-29T00:40:51.229Z,1490.00
2023-03-29T00:41:51.207Z,1492.00
2023-03-29T00:42:51.207Z,1484.00
2023-03-29T00:43:51.178Z,1476.00
2023-03-29T00:45:51.143Z,1478.00
2023-03-29T00:47:51.133Z,1460.00
2023-03-29T00:50:51.049Z,1457.00
2023-03-29T00:51:51.034Z,1453.00
2023-03-29T00:52:51.000Z,1454.00
2023-03-29T00:55:50.932Z,1441.00
2023-03-29T00:56:50.944Z,1447.00
2023-03-29T00:57:50.894Z,1438.00
2023-03-29T00:58:50.872Z,1434.00
2023-03-29T01:02:50.889Z,1437.00
2023-03-29T01:04:50.769Z,1449.00
2023-03-29T01:06:50.801Z,1430.00
2023-03-29T01:07:50.716Z,1447.00
2023-03-29T01:08:50.672Z,1435.00
2023-03-29T01:10:50.651Z,1429.00
2023-03-29T01:13:50.585Z,1434.00
2023-03-29T01:15:50.542Z,1428.00
2023-03-29T01:16:50.588Z,1445.00
2023-03-29T01:17:50.557Z,1446.00
2023-03-29T01:19:50.482Z,1447.00
2023-03-29T01:22:50.420Z,1446.00
2023-03-29T01:23:50.391Z,1444.00
2023-03-29T01:24:50.375Z,1447.00
2023-03-29T01:28:50.280Z,1428.00
2023-03-29T01:29:50.271Z,1452.00
2023-03-29T01:32:50.261Z,1421.00
2023-03-29T01:33:50.175Z,1423.00
2023-03-29T01:34:50.193Z,1415.00
2023-03-29T01:35:50.275Z,1420.00
2023-03-29T01:36:50.265Z,1424.00
2023-03-29T01:37:50.306Z,1413.00
2023-03-29T01:38:50.354Z,1423.00
2023-03-29T01:39:50.383Z,1415.00
2023-03-29T01:40:50.426Z,1408.00
2023-03-29T01:41:50.467Z,1404.00
2023-03-29T01:42:50.506Z,1406.00
2023-03-29T01:43:50.550Z,1413.00
2023-03-29T01:44:50.587Z,1409.00
2023-03-29T01:45:50.635Z,1413.00
2023-03-29T01:46:50.663Z,1418.00
2023-03-29T01:47:50.728Z,1406.00
2023-03-29T01:48:50.716Z,1418.00
2023-03-29T01:49:50.760Z,1408.00
2023-03-29T01:50:50.793Z,1411.00
2023-03-29T01:51:50.847Z,1428.00
2023-03-29T01:52:50.882Z,1408.00
2023-03-29T01:53:50.942Z,1403.00
2023-03-29T01:54:50.956Z,1402.00
2023-03-29T01:55:50.998Z,1407.00
2023-03-29T01:56:51.043Z,1423.00
2023-03-29T01:57:51.085Z,1409.00
2023-03-29T01:58:51.095Z,1395.00
2023-03-29T01:59:51.125Z,1400.00
2023-03-29T02:00:51.175Z,1403.00
2023-03-29T02:01:51.278Z,1413.00
2023-03-29T02:02:51.368Z,1417.00
2023-03-29T02:03:51.284Z,1407.00
2023-03-29T02:04:51.335Z,1409.00
2023-03-29T02:05:51.347Z,1402.00
2023-03-29T02:06:51.402Z,1394.00
2023-03-29T02:07:51.445Z,1406.00
2023-03-29T02:08:51.464Z,1392.00
2023-03-29T02:09:51.508Z,1396.00
2023-03-29T02:10:51.550Z,1406.00
2023-03-29T02:11:51.600Z,1401.00
2023-03-29T02:12:51.625Z,1396.00
2023-03-29T02:13:51.660Z,1378.00
2023-03-29T02:14:51.698Z,1391.00
2023-03-29T02:15:51.743Z,1373.00
2023-03-29T02:16:51.756Z,1378.00
2023-03-29T02:17:51.841Z,1373.00
2023-03-29T02:18:51.838Z,1372.00
2023-03-29T02:19:51.898Z,1372.00
2023-03-29T02:20:51.940Z,1361.00
2023-03-29T02:23:52.041Z,1335.00
2023-03-29T02:24:52.074Z,1342.00
2023-03-29T02:25:52.114Z,1340.00
2023-03-29T02:26:52.150Z,1332.00
2023-03-29T02:27:52.212Z,1330.00
2023-03-29T02:28:52.251Z,1336.00
2023-03-29T02:29:52.278Z,1334.00
2023-03-29T02:30:52.329Z,1338.00
2023-03-29T02:31:52.378Z,1332.00
2023-03-29T02:32:52.437Z,1333.00
2023-03-29T02:33:52.435Z,1334.00
2023-03-29T02:34:52.479Z,1336.00
2023-03-29T02:35:52.562Z,1328.00
2023-03-29T02:36:52.543Z,1330.00
2023-03-29T02:37:52.615Z,1323.00
2023-03-29T02:38:52.616Z,1316.00
2023-03-29T02:39:52.689Z,1317.00
2023-03-29T02:40:52.698Z,1331.00
2023-03-29T02:41:52.733Z,1281.00
2023-03-29T02:42:52.774Z,1284.00
2023-03-29T02:43:52.807Z,1294.00
2023-03-29T02:46:52.951Z,977.00
2023-03-29T02:47:52.989Z,830.00
2023-03-29T02:48:53.014Z,705.00
2023-03-29T02:49:53.045Z,626.00
2023-03-29T02:50:53.086Z,580.00
2023-03-29T02:51:53.134Z,520.00
2023-03-29T02:52:53.180Z,497.00
2023-03-29T02:53:53.223Z,503.00
2023-03-29T02:54:53.256Z,503.00
2023-03-29T02:55:53.300Z,496.00
2023-03-29T02:56:53.366Z,502.00
2023-03-29T02:57:53.387Z,499.00
2023-03-29T02:58:53.444Z,498.00
2023-03-29T02:59:53.481Z,501.00
2023-03-29T03:00:53.538Z,503.00
2023-03-29T03:01:53.753Z,505.00
2023-03-29T03:02:53.687Z,500.00
2023-03-29T03:03:53.813Z,498.00
2023-03-29T03:04:53.724Z,500.00
2023-03-29T03:05:53.773Z,500.00
2023-03-29T03:06:53.817Z,502.00
2023-03-29T03:07:53.884Z,500.00
2023-03-29T03:08:53.909Z,502.00
2023-03-29T03:09:53.938Z,500.00
2023-03-29T03:10:54.018Z,500.00
2023-03-29T03:11:54.022Z,501.00
2023-03-29T03:12:54.076Z,500.00
2023-03-29T03:13:54.132Z,508.00
2023-03-29T03:14:54.192Z,500.00
2023-03-29T03:15:54.279Z,505.00
2023-03-29T03:16:54.255Z,508.00
2023-03-29T03:17:54.332Z,507.00
2023-03-29T03:18:54.369Z,509.00
2023-03-29T03:19:54.389Z,506.00
2023-03-29T03:20:54.438Z,517.00
2023-03-29T03:21:54.494Z,516.00
2023-03-29T03:22:54.586Z,518.00
2023-03-29T03:23:54.598Z,530.00
2023-03-29T03:24:54.609Z,534.00
2023-03-29T03:25:54.650Z,537.00
2023-03-29T03:26:54.684Z,538.00
2023-03-29T03:27:54.748Z,541.00
2023-03-29T03:28:54.809Z,544.00
2023-03-29T03:29:54.820Z,549.00
2023-03-29T03:30:54.855Z,548.00
2023-03-29T03:31:54.941Z,549.00
2023-03-29T03:32:55.029Z,550.00
2023-03-29T03:33:55.008Z,550.00
2023-03-29T03:34:55.040Z,553.00
2023-03-29T03:35:55.107Z,541.00
2023-03-29T03:36:55.136Z,529.00
2023-03-29T03:37:55.188Z,525.00
2023-03-29T03:38:55.236Z,537.00
2023-03-29T03:39:55.248Z,546.00
2023-03-29T03:40:55.319Z,533.00
2023-03-29T03:41:55.361Z,522.00
2023-03-29T03:42:55.430Z,517.00
2023-03-29T03:43:55.480Z,504.00
2023-03-29T03:44:55.548Z,506.00
2023-03-29T03:45:55.590Z,500.00
2023-03-29T03:46:55.630Z,510.00
2023-03-29T03:47:55.736Z,503.00
2023-03-29T03:48:55.714Z,507.00
2023-03-29T03:49:55.800Z,515.00
2023-03-29T03:50:55.809Z,514.00
2023-03-29T03:51:55.868Z,500.00
2023-03-29T03:52:55.909Z,502.00
2023-03-29T03:53:55.973Z,504.00
2023-03-29T03:54:55.959Z,505.00
2023-03-29T04:00:55.893Z,500.00
2023-03-29T04:01:55.944Z,500.00
2023-03-29T04:02:56.015Z,497.00
2023-03-29T04:03:56.054Z,498.00
2023-03-29T04:05:55.828Z,512.00
2023-03-29T04:10:55.771Z,500.00
2023-03-29T04:11:55.758Z,506.00
2023-03-29T04:12:55.732Z,506.00
2023-03-29T04:15:55.776Z,513.00
2023-03-29T04:19:55.696Z,545.00
2023-03-29T04:21:55.652Z,573.00
2023-03-29T04:23:55.629Z,795.00
2023-03-29T04:25:55.610Z,1332.00
2023-03-29T04:28:55.563Z,1478.00
2023-03-29T04:32:55.625Z,1182.00
2023-03-29T04:35:55.484Z,1072.00
2023-03-29T04:37:55.418Z,1061.00
2023-03-29T04:38:55.396Z,886.00
2023-03-29T04:42:55.354Z,605.00
2023-03-29T04:45:55.382Z,666.00
2023-03-29T04:47:55.348Z,746.00
2023-03-29T04:49:55.301Z,628.00
2023-03-29T04:52:55.278Z,520.00
2023-03-29T04:53:55.278Z,516.00
2023-03-29T04:54:55.289Z,511.00
2023-03-29T04:58:55.214Z,497.00
2023-03-29T05:00:55.193Z,440.00
2023-03-29T05:03:55.215Z,460.00
2023-03-29T05:04:55.182Z,500.00
2023-03-29T05:06:55.167Z,571.00
2023-03-29T05:07:55.169Z,621.00
2023-03-29T05:10:55.132Z,667.00
2023-03-29T05:12:55.100Z,793.00
2023-03-29T05:17:55.083Z,1326.00
2023-03-29T05:18:55.089Z,1383.00
2023-03-29T05:19:55.085Z,1452.00
2023-03-29T05:22:55.034Z,1694.00
2023-03-29T05:23:55.042Z,1749.00
2023-03-29T05:24:55.099Z,1818.00
2023-03-29T05:25:55.022Z,1867.00
2023-03-29T05:29:54.998Z,2095.00
2023-03-29T05:32:54.981Z,2305.00
2023-03-29T05:33:55.000Z,2398.00
2023-03-29T05:35:54.928Z,2624.00
2023-03-29T05:38:54.824Z,2868.00
2023-03-29T05:39:54.827Z,2914.00
2023-03-29T05:41:54.807Z,2936.00
2023-03-29T05:42:54.775Z,2988.00
2023-03-29T05:47:54.761Z,3425.00
2023-03-29T05:48:54.726Z,3426.00
2023-03-29T05:49:54.740Z,3432.00
2023-03-29T05:51:55.267Z,3516.00
2023-03-29T05:54:54.589Z,3669.00
2023-03-29T05:55:54.602Z,3675.00
2023-03-29T05:56:54.745Z,3703.00
2023-03-29T05:57:54.529Z,3721.00
2023-03-29T06:04:54.527Z,3654.00
2023-03-29T06:08:54.384Z,2620.00
2023-03-29T06:09:54.389Z,2471.00
2023-03-29T06:11:54.354Z,2129.00
2023-03-29T06:12:54.408Z,1920.00
2023-03-29T06:14:54.383Z,1638.00
2023-03-29T06:15:54.494Z,1548.00
2023-03-29T06:20:54.353Z,1169.00
2023-03-29T06:23:54.336Z,1048.00
2023-03-29T06:24:54.449Z,953.00
2023-03-29T06:25:54.347Z,986.00
2023-03-29T06:27:54.350Z,856.00
2023-03-29T06:30:54.443Z,1153.00
2023-03-29T06:31:54.425Z,1377.00
2023-03-29T06:33:54.345Z,1450.00
2023-03-29T06:34:54.355Z,1614.00
2023-03-29T06:35:54.395Z,1936.00
2023-03-29T06:38:54.320Z,2695.00
2023-03-29T06:39:54.328Z,2812.00
2023-03-29T06:40:54.343Z,2908.00
2023-03-29T06:42:54.358Z,3081.00
2023-03-29T06:43:54.267Z,3164.00
2023-03-29T06:46:54.361Z,3392.00
2023-03-29T06:47:54.295Z,3395.00
2023-03-29T06:51:54.142Z,3782.00
2023-03-29T06:52:54.115Z,3836.00
2023-03-29T06:53:54.174Z,3895.00
2023-03-29T06:55:54.068Z,3969.00
2023-03-29T06:56:54.091Z,3983.00
2023-03-29T06:58:54.044Z,3998.00
2023-03-29T06:59:54.008Z,3992.00
2023-03-29T07:04:53.925Z,4174.00
2023-03-29T07:05:53.896Z,4179.00
2023-03-29T07:07:53.871Z,4204.00
2023-03-29T07:08:53.839Z,4215.00
2023-03-29T07:09:54.112Z,4224.00
2023-03-29T07:10:53.811Z,4259.00
2023-03-29T07:11:53.830Z,4305.00
2023-03-29T07:12:53.865Z,4206.00
2023-03-29T07:15:53.835Z,4284.00
2023-03-29T07:18:53.656Z,4366.00
2023-03-29T07:19:53.676Z,4352.00
2023-03-29T07:21:53.616Z,4356.00
2023-03-29T07:22:53.575Z,4353.00
2023-03-29T07:23:53.609Z,4347.00
2023-03-29T07:27:03.390Z,4331.00
2023-03-29T07:27:54.563Z,4332.00
2023-03-29T07:30:53.569Z,4329.00
2023-03-29T07:32:53.619Z,4310.00
2023-03-29T07:34:53.417Z,4288.00
2023-03-29T07:36:53.300Z,4219.00
2023-03-29T07:39:53.191Z,4158.00
2023-03-29T07:42:53.127Z,3658.00
2023-03-29T07:43:53.096Z,3358.00
2023-03-29T07:44:53.468Z,3179.00
2023-03-29T07:45:53.097Z,3126.00
2023-03-29T07:46:53.031Z,3147.00
2023-03-29T07:47:53.091Z,3068.00
2023-03-29T07:51:52.973Z,2829.00
2023-03-29T07:53:52.994Z,2602.00
2023-03-29T07:54:52.968Z,2504.00
2023-03-29T07:55:52.905Z,2466.00
2023-03-29T07:56:53.170Z,2371.00
2023-03-29T07:57:52.991Z,2330.00
2023-03-29T08:00:52.812Z,2579.00
2023-03-29T08:04:52.767Z,2853.00
2023-03-29T08:06:52.701Z,3037.00
2023-03-29T08:07:52.655Z,3238.00
2023-03-29T08:08:52.615Z,3321.00
2023-03-29T08:09:52.596Z,3377.00
2023-03-29T08:15:52.572Z,3517.00
2023-03-29T08:16:52.548Z,3521.00
2023-03-29T08:17:52.571Z,3563.00
2023-03-29T08:18:52.443Z,3600.00
2023-03-29T08:19:52.515Z,3612.00
2023-03-29T08:20:53.378Z,3603.00
2023-03-29T08:24:52.273Z,3540.00
2023-03-29T08:26:52.219Z,3521.00
2023-03-29T08:27:52.256Z,3527.00
2023-03-29T08:29:52.159Z,3431.00
2023-03-29T08:30:52.251Z,3427.00
2023-03-29T08:35:52.020Z,3051.00
2023-03-29T08:36:52.020Z,3063.00
2023-03-29T08:37:52.116Z,2957.00
2023-03-29T08:38:51.973Z,2956.00
2023-03-29T08:39:51.915Z,2862.00
2023-03-29T08:40:52.799Z,2712.00
2023-03-29T08:41:51.878Z,2679.00
2023-03-29T08:42:51.884Z,2549.00
2023-03-29T08:44:51.789Z,2461.00
2023-03-29T08:45:51.888Z,2390.00
2023-03-29T08:48:51.788Z,2259.00
2023-03-29T08:49:51.943Z,2164.00
2023-03-29T08:50:51.994Z,2028.00
2023-03-29T08:51:51.705Z,1783.00
2023-03-29T08:55:51.583Z,2249.00
2023-03-29T08:58:51.586Z,2654.00
2023-03-29T08:59:51.507Z,2782.00
2023-03-29T09:02:51.620Z,3112.00
2023-03-29T09:03:51.938Z,3220.00
2023-03-29T09:04:51.410Z,3322.00
2023-03-29T09:05:52.445Z,3366.00
2023-03-29T09:07:51.402Z,3450.00
2023-03-29T09:08:51.540Z,3492.00
2023-03-29T09:09:51.273Z,3509.00
2023-03-29T09:10:51.454Z,3556.00
2023-03-29T09:13:51.191Z,3615.00
2023-03-29T09:17:51.049Z,3772.00
2023-03-29T09:18:51.275Z,3720.00
2023-03-29T09:21:50.962Z,3713.00
2023-03-29T09:22:50.870Z,3716.00
2023-03-29T09:23:50.847Z,3728.00
2023-03-29T09:25:54.090Z,3798.00
2023-03-29T09:29:50.783Z,3781.00
2023-03-29T09:31:50.878Z,3826.00
2023-03-29T09:33:50.537Z,3887.00
2023-03-29T09:34:50.540Z,3894.00
2023-03-29T09:36:50.420Z,3910.00
2023-03-29T09:40:50.294Z,3996.00
2023-03-29T09:41:50.341Z,4040.00
2023-03-29T09:43:50.554Z,4075.00
2023-03-29T09:44:50.240Z,4133.00
2023-03-29T09:48:50.017Z,4188.00
2023-03-29T09:51:49.938Z,4218.00
2023-03-29T09:53:49.874Z,4185.00
2023-03-29T09:55:50.608Z,4151.00
2023-03-29T09:56:49.899Z,4127.00
2023-03-29T10:01:49.642Z,4057.00
2023-03-29T10:02:49.605Z,4046.00
2023-03-29T10:03:49.620Z,4021.00
2023-03-29T10:04:49.504Z,4002.00
2023-03-29T10:08:49.468Z,3932.00
2023-03-29T10:11:49.353Z,3879.00
2023-03-29T10:12:49.247Z,3884.00
2023-03-29T10:13:49.247Z,3852.00
2023-03-29T10:14:52.992Z,3836.00
2023-03-29T10:17:49.114Z,3818.00
2023-03-29T10:21:48.978Z,3781.00
2023-03-29T10:22:48.904Z,3775.00
2023-03-29T10:24:48.849Z,3720.00
2023-03-29T10:27:48.737Z,3737.00
2023-03-29T10:28:48.697Z,3708.00
2023-03-29T10:32:48.610Z,3724.00
2023-03-29T10:34:48.492Z,3761.00
2023-03-29T10:36:48.502Z,3754.00
2023-03-29T10:37:48.492Z,3758.00
2023-03-29T10:38:48.372Z,3752.00
2023-03-29T10:40:48.368Z,3745.00
2023-03-29T10:41:48.263Z,3761.00
2023-03-29T10:42:48.345Z,3748.00
2023-03-29T10:47:48.122Z,3756.00
2023-03-29T10:48:48.029Z,3752.00
2023-03-29T10:50:48.000Z,3737.00
2023-03-29T10:51:47.898Z,3767.00
2023-03-29T10:52:47.869Z,3744.00
2023-03-29T10:56:47.748Z,3729.00
2023-03-29T10:57:47.797Z,3742.00
2023-03-29T10:59:47.670Z,3746.00
2023-03-29T11:00:47.608Z,3723.00
2023-03-29T11:01:47.640Z,3739.00
2023-03-29T11:02:47.636Z,3759.00
2023-03-29T11:03:47.553Z,3732.00
2023-03-29T11:04:47.578Z,3738.00
2023-03-29T11:06:47.431Z,3735.00
2023-03-29T11:09:47.423Z,3704.00
2023-03-29T11:10:47.363Z,3727.00
2023-03-29T11:11:47.365Z,3706.00
2023-03-29T11:12:47.241Z,3706.00
2023-03-29T11:13:47.183Z,3696.00
2023-03-29T11:14:47.201Z,3710.00
2023-03-29T11:16:47.134Z,3654.00
2023-03-29T11:19:47.019Z,3522.00
2023-03-29T11:20:46.982Z,3500.00
2023-03-29T11:23:46.895Z,3361.00
2023-03-29T11:24:46.870Z,3340.00
2023-03-29T11:26:46.815Z,3304.00
2023-03-29T11:28:46.802Z,3251.00
2023-03-29T11:31:46.692Z,3228.00
2023-03-29T11:32:46.724Z,3215.00
2023-03-29T11:34:46.538Z,3246.00
2023-03-29T11:37:46.430Z,3284.00
2023-03-29T11:39:46.581Z,3296.00
2023-03-29T11:41:46.293Z,3309.00
2023-03-29T11:44:46.938Z,3330.00
2023-03-29T11:45:46.283Z,3361.00
2023-03-29T11:47:46.149Z,3399.00
2023-03-29T11:48:46.032Z,3388.00
2023-03-29T11:49:46.000Z,3388.00
2023-03-29T11:54:45.856Z,3337.00
2023-03-29T11:56:45.916Z,3367.00
2023-03-29T11:57:45.722Z,3328.00
2023-03-29T11:58:45.701Z,3324.00
2023-03-29T12:00:45.662Z,3289.00
2023-03-29T12:01:45.609Z,3293.00
2023-03-29T12:06:45.449Z,3218.00
2023-03-29T12:07:45.400Z,3216.00
2023-03-29T12:09:45.321Z,3190.00
2023-03-29T12:10:45.277Z,3181.00
2023-03-29T12:11:45.249Z,3160.00
2023-03-29T12:13:45.171Z,3124.00
2023-03-29T12:18:44.988Z,3099.00
2023-03-29T12:19:44.996Z,3082.00
2023-03-29T12:20:44.975Z,3076.00
2023-03-29T12:22:44.884Z,3043.00
2023-03-29T12:25:44.819Z,3042.00
2023-03-29T12:26:44.766Z,3054.00
2023-03-29T12:28:44.712Z,3049.00
2023-03-29T12:31:44.797Z,3092.00
2023-03-29T12:32:45.006Z,3107.00
2023-03-29T12:33:44.540Z,3134.00
2023-03-29T12:37:44.428Z,3198.00
2023-03-29T12:39:44.341Z,3261.00
2023-03-29T12:41:44.895Z,3317.00
2023-03-29T12:42:44.342Z,3353.00
2023-03-29T12:44:44.175Z,3466.00
2023-03-29T12:45:44.226Z,3533.00
2023-03-29T12:46:44.199Z,3594.00
2023-03-29T12:47:44.106Z,3624.00
2023-03-29T12:48:44.094Z,3686.00
2023-03-29T12:50:44.080Z,3713.00
2023-03-29T12:51:43.949Z,3724.00
2023-03-29T12:53:41.190Z,500.00
2023-03-29T12:54:41.209Z,500.00
2023-03-29T12:55:41.201Z,500.00
2023-03-29T12:56:41.238Z,500.00
2023-03-29T12:57:41.213Z,500.00
2023-03-29T12:58:41.184Z,509.00
2023-03-29T12:59:41.157Z,520.00
2023-03-29T13:00:41.136Z,511.00
2023-03-29T13:01:41.353Z,518.00
2023-03-29T13:02:41.303Z,532.00
2023-03-29T13:03:41.135Z,529.00
2023-03-29T13:04:41.078Z,530.00
2023-03-29T13:05:41.068Z,526.00
2023-03-29T13:06:41.101Z,526.00
2023-03-29T13:07:41.040Z,543.00
2023-03-29T13:08:41.032Z,557.00
2023-03-29T13:09:41.120Z,545.00
2023-03-29T13:10:40.992Z,538.00
2023-03-29T13:11:41.010Z,555.00
2023-03-29T13:12:40.972Z,552.00
2023-03-29T13:13:40.967Z,502.00
2023-03-29T13:14:40.960Z,491.00
2023-03-29T13:15:40.998Z,477.00
2023-03-29T13:16:40.932Z,505.00
2023-03-29T13:17:40.935Z,462.00
2023-03-29T13:18:40.932Z,440.00
2023-03-29T13:19:40.881Z,429.00
2023-03-29T13:20:40.897Z,419.00
2023-03-29T13:21:40.886Z,423.00
2023-03-29T13:22:40.859Z,410.00
2023-03-29T13:23:40.840Z,434.00
2023-03-29T13:24:40.923Z,438.00
2023-03-29T13:25:40.814Z,453.00
2023-03-29T13:26:40.931Z,400.00
2023-03-29T13:27:40.843Z,400.00
2023-03-29T13:28:40.807Z,400.00
2023-03-29T13:29:40.825Z,400.00
2023-03-29T13:30:40.848Z,400.00
2023-03-29T13:31:40.962Z,400.00
2023-03-29T13:32:40.821Z,400.00
2023-03-29T13:33:40.763Z,400.00
2023-03-29T13:34:40.769Z,400.00
2023-03-29T13:35:40.770Z,400.00
2023-03-29T13:36:40.749Z,442.00
2023-03-29T13:37:40.825Z,518.00
2023-03-29T13:38:40.726Z,555.00
2023-03-29T13:39:40.814Z,597.00
2023-03-29T13:40:40.746Z,645.00
2023-03-29T13:41:40.721Z,705.00
2023-03-29T13:42:40.749Z,773.00
2023-03-29T13:43:40.690Z,852.00
2023-03-29T13:44:40.797Z,941.00
2023-03-29T13:45:40.773Z,1047.00
2023-03-29T13:46:40.942Z,1090.00
2023-03-29T13:47:41.805Z,1223.00
2023-03-29T13:48:40.895Z,1336.00
2023-03-29T13:49:40.946Z,1437.00
2023-03-29T13:50:40.974Z,1517.00
2023-03-29T13:51:41.095Z,1592.00
2023-03-29T13:52:41.093Z,1607.00
2023-03-29T13:53:41.159Z,1674.00
2023-03-29T13:54:41.169Z,1701.00
2023-03-29T13:55:41.212Z,1719.00
2023-03-29T13:56:41.266Z,1681.00
2023-03-29T13:57:41.345Z,1798.00
2023-03-29T13:58:41.344Z,1889.00
2023-03-29T13:59:41.381Z,1922.00
2023-03-29T14:00:41.443Z,1926.00
2023-03-29T14:01:41.379Z,1946.00
2023-03-29T14:02:41.446Z,1930.00
2023-03-29T14:03:41.329Z,1956.00
2023-03-29T14:04:41.308Z,2017.00
2023-03-29T14:05:41.335Z,2090.00
2023-03-29T14:06:41.282Z,2180.00
2023-03-29T14:07:41.264Z,2226.00
2023-03-29T14:08:41.293Z,2214.00
2023-03-29T14:09:41.238Z,2269.00
2023-03-29T14:10:41.238Z,2315.00
2023-03-29T14:11:41.250Z,2322.00
2023-03-29T14:12:42.055Z,2362.00
2023-03-29T14:13:41.187Z,2364.00
2023-03-29T14:14:55.710Z,2425.00
2023-03-29T14:15:42.200Z,2374.00
2023-03-29T14:16:41.152Z,2397.00
2023-03-29T14:17:41.206Z,2440.00
2023-03-29T14:18:41.085Z,2517.00
2023-03-29T14:19:41.092Z,2615.00
2023-03-29T14:20:41.094Z,2534.00
2023-03-29T14:21:41.044Z,2540.00
2023-03-29T14:22:41.060Z,2556.00
2023-03-29T14:23:41.017Z,2502.00
2023-03-29T14:24:41.015Z,2460.00
2023-03-29T14:25:40.990Z,2457.00
2023-03-29T14:26:40.998Z,2370.00
2023-03-29T14:27:41.038Z,2330.00
2023-03-29T14:28:41.084Z,2351.00
2023-03-29T14:29:41.123Z,2381.00
2023-03-29T14:30:41.166Z,2354.00
2023-03-29T14:31:41.234Z,2343.00
2023-03-29T14:32:41.322Z,2333.00
2023-03-29T14:33:41.320Z,2345.00
2023-03-29T14:34:41.331Z,2345.00
2023-03-29T14:35:41.346Z,2342.00
2023-03-29T14:36:41.386Z,2261.00
2023-03-29T14:37:41.247Z,2227.00
2023-03-29T14:38:41.216Z,2227.00
2023-03-29T14:39:41.197Z,2192.00
2023-03-29T14:40:41.199Z,2202.00
2023-03-29T14:41:41.162Z,2187.00
2023-03-29T14:42:41.160Z,2166.00
2023-03-29T14:43:41.135Z,2129.00
2023-03-29T14:44:41.126Z,2123.00
2023-03-29T14:45:41.128Z,2125.00
2023-03-29T14:46:41.201Z,2109.00
2023-03-29T14:47:41.114Z,2088.00
2023-03-29T14:48:41.040Z,2087.00
2023-03-29T14:49:41.019Z,2083.00
2023-03-29T14:50:40.988Z,2082.00
2023-03-29T14:51:40.993Z,2056.00
2023-03-29T14:52:40.967Z,2045.00
2023-03-29T14:53:40.951Z,2061.00
2023-03-29T14:54:40.911Z,2053.00
2023-03-29T14:55:40.919Z,2049.00
2023-03-29T14:56:40.905Z,2062.00
2023-03-29T14:57:40.891Z,2069.00
2023-03-29T14:58:40.870Z,2068.00
2023-03-29T14:59:40.880Z,2064.00
2023-03-29T15:00:40.844Z,2055.00
2023-03-29T15:01:40.870Z,2071.00
2023-03-29T15:02:40.929Z,2079.00
2023-03-29T15:03:41.009Z,2084.00
2023-03-29T15:04:40.844Z,2070.00
2023-03-29T15:05:40.840Z,2078.00
2023-03-29T15:06:40.819Z,2090.00
2023-03-29T15:07:40.825Z,2083.00
2023-03-29T15:08:44.088Z,2078.00
2023-03-29T15:09:41.799Z,2079.00
2023-03-29T15:10:42.993Z,2082.00
2023-03-29T15:11:40.771Z,2079.00
2023-03-29T15:12:40.769Z,2085.00
2023-03-29T15:13:40.757Z,2090.00
2023-03-29T15:14:40.748Z,2106.00
2023-03-29T15:15:40.773Z,2103.00
2023-03-29T15:16:40.728Z,2108.00
2023-03-29T15:17:50.896Z,2099.00
2023-03-29T15:18:41.704Z,2101.00
2023-03-29T15:19:40.687Z,2105.00
2023-03-29T15:20:40.668Z,2105.00
2023-03-29T15:21:40.661Z,2110.00
2023-03-29T15:22:40.635Z,2112.00
2023-03-29T15:23:40.619Z,2115.00
2023-03-29T15:24:40.612Z,2105.00
2023-03-29T15:25:40.591Z,2109.00
2023-03-29T15:26:40.590Z,2100.00
2023-03-29T15:27:40.572Z,2110.00
2023-03-29T15:28:40.548Z,2091.00
2023-03-29T15:29:40.556Z,2091.00
2023-03-29T15:30:40.548Z,2092.00
2023-03-29T15:31:40.566Z,2101.00
2023-03-29T15:32:40.595Z,2099.00
2023-03-29T15:33:40.666Z,2088.00
2023-03-29T15:34:40.494Z,2088.00
2023-03-29T15:35:40.543Z,2079.00
2023-03-29T15:36:40.530Z,2084.00
2023-03-29T15:37:40.488Z,2064.00
2023-03-29T15:38:44.182Z,2074.00
2023-03-29T15:39:40.437Z,2074.00
2023-03-29T15:40:40.445Z,2076.00
2023-03-29T15:41:40.407Z,2071.00
2023-03-29T15:42:40.401Z,2079.00
2023-03-29T15:43:40.381Z,2078.00
2023-03-29T15:44:40.366Z,2076.00
2023-03-29T15:45:40.357Z,2062.00
2023-03-29T15:46:40.383Z,2061.00
2023-03-29T15:47:40.364Z,2055.00
2023-03-29T15:48:40.331Z,2049.00
2023-03-29T15:49:40.318Z,2057.00
2023-03-29T15:50:40.304Z,2051.00
2023-03-29T15:51:40.284Z,2054.00
2023-03-29T15:52:40.289Z,2047.00
2023-03-29T15:53:40.293Z,2035.00
2023-03-29T15:54:40.297Z,2045.00
2023-03-29T15:55:40.270Z,2031.00
2023-03-29T15:56:42.588Z,2045.00
2023-03-29T15:57:40.333Z,2051.00
2023-03-29T15:58:40.251Z,2035.00
2023-03-29T15:59:40.223Z,2031.00
2023-03-29T16:00:40.227Z,2032.00
2023-03-29T16:01:40.274Z,2034.00
2023-03-29T16:02:40.327Z,2035.00
2023-03-29T16:03:40.200Z,2033.00
2023-03-29T16:04:40.152Z,2035.00
2023-03-29T16:05:40.127Z,2032.00
2023-03-29T16:06:40.101Z,2030.00
2023-03-29T16:07:40.105Z,2029.00
2023-03-29T16:08:40.080Z,2026.00
2023-03-29T16:09:40.059Z,2004.00
2023-03-29T16:10:40.057Z,2023.00
2023-03-29T16:11:40.036Z,2017.00
2023-03-29T16:12:40.026Z,2000.00
2023-03-29T16:13:40.066Z,2008.00
2023-03-29T16:14:41.879Z,1985.00
2023-03-29T16:15:39.996Z,2007.00
2023-03-29T16:16:40.003Z,1986.00
2023-03-29T16:17:40.027Z,1989.00
2023-03-29T16:18:39.940Z,1990.00
2023-03-29T16:19:39.938Z,1994.00
2023-03-29T16:20:39.945Z,1971.00
2023-03-29T16:21:39.922Z,1977.00
2023-03-29T16:22:39.917Z,1967.00
2023-03-29T16:23:39.907Z,1976.00
2023-03-29T16:24:39.887Z,1992.00
2023-03-29T16:25:39.925Z,1968.00
2023-03-29T16:26:39.862Z,1956.00
2023-03-29T16:27:39.868Z,1975.00
2023-03-29T16:28:39.861Z,1957.00
2023-03-29T16:29:39.833Z,1949.00
2023-03-29T16:30:39.819Z,1937.00
2023-03-29T16:31:39.842Z,1949.00
2023-03-29T16:32:39.883Z,1931.00
2023-03-29T16:33:39.808Z,1941.00
2023-03-29T16:34:39.786Z,1952.00
2023-03-29T16:35:39.872Z,1929.00
2023-03-29T16:36:39.739Z,1947.00
2023-03-29T16:37:39.755Z,1947.00
2023-03-29T16:38:39.748Z,1932.00
2023-03-29T16:39:39.743Z,1928.00
2023-03-29T16:40:39.733Z,1928.00
2023-03-29T16:41:39.767Z,1916.00
2023-03-29T16:42:39.770Z,1927.00
2023-03-29T16:43:39.779Z,1917.00
2023-03-29T16:44:39.719Z,1894.00
2023-03-29T16:45:39.718Z,1916.00
2023-03-29T16:46:39.717Z,1900.00
2023-03-29T16:47:39.702Z,1929.00
2023-03-29T16:48:39.707Z,1931.00
2023-03-29T16:49:40.242Z,1896.00
2023-03-29T16:50:39.707Z,1898.00
2023-03-29T16:51:39.680Z,1883.00
2023-03-29T16:52:39.696Z,1909.00
2023-03-29T16:53:39.674Z,1908.00
2023-03-29T16:54:39.673Z,1899.00
2023-03-29T16:55:39.661Z,1857.00
2023-03-29T16:56:39.697Z,1859.00
2023-03-29T16:57:39.671Z,1865.00
2023-03-29T16:58:39.648Z,1877.00
2023-03-29T16:59:39.655Z,1869.00
2023-03-29T17:00:39.627Z,1888.00
2023-03-29T17:01:39.629Z,1856.00
2023-03-29T17:02:39.661Z,1883.00
2023-03-29T17:03:39.611Z,1871.00
2023-03-29T17:04:39.674Z,1890.00
2023-03-29T17:05:39.611Z,1882.00
2023-03-29T17:06:39.615Z,1876.00
2023-03-29T17:07:39.633Z,1839.00
2023-03-29T17:08:39.609Z,1885.00
2023-03-29T17:09:39.652Z,1887.00
2023-03-29T17:10:39.698Z,1851.00
2023-03-29T17:11:39.795Z,1828.00
2023-03-29T17:12:39.833Z,1844.00
2023-03-29T17:13:40.282Z,1824.00
2023-03-29T17:14:39.917Z,1818.00
2023-03-29T17:15:40.159Z,1828.00